createdAt,value
2023-04-04T00:02:01.662Z,93.00
2023-04-04T00:04:29.649Z,93.60
2023-04-04T00:06:57.809Z,94.10
2023-04-04T00:09:25.862Z,94.70
2023-04-04T00:11:53.976Z,94.40
2023-04-04T00:14:22.457Z,94.70
2023-04-04T00:16:51.890Z,94.90
2023-04-04T00:19:19.835Z,95.80
2023-04-04T00:21:47.832Z,95.20
2023-04-04T00:24:19.716Z,96.10
2023-04-04T00:26:47.732Z,95.80
2023-04-04T00:29:15.729Z,95.20
2023-04-04T00:31:43.765Z,94.60
2023-04-04T00:34:13.211Z,93.90
2023-04-04T00:36:41.738Z,94.60
2023-04-04T00:39:09.975Z,94.00
2023-04-04T00:41:38.555Z,94.10
2023-04-04T00:44:08.377Z,94.90
2023-04-04T00:46:38.694Z,94.10
2023-04-04T00:49:07.558Z,93.60
2023-04-04T00:51:39.028Z,93.70
2023-04-04T00:54:09.228Z,93.40
2023-04-04T00:56:41.573Z,93.20
2023-04-04T00:59:11.741Z,93.40
2023-04-04T01:01:39.966Z,93.30
2023-04-04T01:04:07.993Z,92.80
2023-04-04T01:06:38.360Z,93.00
2023-04-04T01:09:07.324Z,92.80
2023-04-04T01:11:36.307Z,93.20
2023-04-04T01:14:04.292Z,94.10
2023-04-04T01:16:32.308Z,93.50
2023-04-04T01:19:00.473Z,93.00
2023-04-04T01:21:30.593Z,93.00
2023-04-04T01:24:03.027Z,93.00
2023-04-04T01:26:33.490Z,93.00
2023-04-04T01:29:01.698Z,93.60
2023-04-04T01:31:33.519Z,93.70
2023-04-04T01:34:10.796Z,93.90
2023-04-04T01:36:44.635Z,94.00
2023-04-04T01:39:19.778Z,93.70
2023-04-04T01:41:50.251Z,93.60
2023-04-04T01:44:22.889Z,93.70
2023-04-04T01:46:59.325Z,93.70
2023-04-04T01:49:27.831Z,94.20
2023-04-04T01:51:56.916Z,94.30
2023-04-04T01:54:26.114Z,94.50
2023-04-04T01:56:57.352Z,94.50
2023-04-04T01:59:25.883Z,94.20
2023-04-04T02:01:55.365Z,95.30
2023-04-04T02:04:28.235Z,94.60
2023-04-04T02:06:57.164Z,94.50
2023-04-04T02:09:25.607Z,95.00
2023-04-04T02:11:58.720Z,95.30
2023-04-04T02:14:26.698Z,94.80
2023-04-04T02:16:54.669Z,95.40
2023-04-04T02:19:22.695Z,95.40
2023-04-04T02:21:56.565Z,96.20
2023-04-04T02:24:24.636Z,96.40
2023-04-04T02:26:52.649Z,96.40
2023-04-04T02:29:21.970Z,96.00
2023-04-04T02:31:49.985Z,96.20
2023-04-04T02:34:18.288Z,98.20
2023-04-04T02:36:46.347Z,98.10
2023-04-04T02:39:15.354Z,98.30
2023-04-04T02:41:43.370Z,98.40
2023-04-04T02:44:12.469Z,98.90
2023-04-04T02:46:43.837Z,98.20
2023-04-04T02:49:12.557Z,98.20
2023-04-04T02:51:40.652Z,99.10
2023-04-04T02:54:11.808Z,98.20
2023-04-04T02:56:39.863Z,98.10
2023-04-04T02:59:07.900Z,98.80
2023-04-04T03:01:35.973Z,99.80
2023-04-04T03:04:05.833Z,99.90
2023-04-04T03:06:49.252Z,99.90
2023-04-04T03:09:17.245Z,99.90
2023-04-04T03:11:45.885Z,99.90
2023-04-04T03:14:13.873Z,99.90
2023-04-04T03:16:42.066Z,99.90
2023-04-04T03:19:12.100Z,99.90
2023-04-04T03:21:40.065Z,99.90
2023-04-04T03:24:08.393Z,99.90
2023-04-04T03:26:36.504Z,99.90
2023-04-04T03:29:04.862Z,99.90
2023-04-04T03:31:37.103Z,99.90
2023-04-04T03:34:05.388Z,99.90
2023-04-04T03:36:35.776Z,99.90
2023-04-04T03:39:03.802Z,99.90
2023-04-04T03:41:31.788Z,99.90
2023-04-04T03:43:59.768Z,99.90
2023-04-04T03:46:27.922Z,99.90
2023-04-04T03:49:07.865Z,99.90
2023-04-04T03:51:37.331Z,99.90
2023-04-04T03:54:05.536Z,99.90
2023-04-04T03:56:33.685Z,99.90
2023-04-04T03:59:01.808Z,99.90
2023-04-04T04:01:31.045Z,99.90
2023-04-04T04:04:01.147Z,99.90
2023-04-04T04:06:29.383Z,99.90
2023-04-04T04:08:58.958Z,99.90
2023-04-04T04:11:28.141Z,99.90
2023-04-04T04:13:56.598Z,99.90
2023-04-04T04:16:24.675Z,99.90
2023-04-04T04:18:52.736Z,99.90
2023-04-04T04:21:23.882Z,99.90
2023-04-04T04:23:51.812Z,99.90
2023-04-04T04:26:21.320Z,99.90
2023-04-04T04:28:49.338Z,99.90
2023-04-04T04:31:17.335Z,99.90
2023-04-04T04:33:45.890Z,99.90
2023-04-04T04:36:17.483Z,99.90
2023-04-04T04:38:47.581Z,99.90
2023-04-04T04:41:15.647Z,99.90
2023-04-04T04:43:45.508Z,99.90
2023-04-04T04:46:14.970Z,99.90
2023-04-04T04:48:43.123Z,99.90
2023-04-04T04:51:12.385Z,99.90
2023-04-04T04:53:40.661Z,99.90
2023-04-04T04:56:09.036Z,99.90
2023-04-04T04:58:37.041Z,99.90
2023-04-04T05:01:06.549Z,99.90
2023-04-04T05:03:35.086Z,99.90
2023-04-04T05:06:03.076Z,99.90
2023-04-04T05:08:32.494Z,99.90
2023-04-04T05:11:00.612Z,99.90
2023-04-04T05:13:28.594Z,99.90
2023-04-04T05:15:56.693Z,99.90
2023-04-04T05:18:27.479Z,99.90
2023-04-04T05:20:55.838Z,99.90
2023-04-04T05:23:23.991Z,99.90
2023-04-04T05:25:53.267Z,99.90
2023-04-04T05:28:21.799Z,99.90
2023-04-04T05:30:50.204Z,99.90
2023-04-04T05:33:20.381Z,99.90
2023-04-04T05:35:49.888Z,99.90
2023-04-04T05:38:17.991Z,99.90
2023-04-04T05:40:47.948Z,99.90
2023-04-04T05:43:15.907Z,99.90
2023-04-04T05:45:43.904Z,99.90
2023-04-04T05:48:11.920Z,99.90
2023-04-04T05:50:39.984Z,99.90
2023-04-04T05:53:09.428Z,99.90
2023-04-04T05:55:37.378Z,99.90
2023-04-04T05:58:05.481Z,99.90
2023-04-04T06:00:33.460Z,99.90
2023-04-04T06:03:01.688Z,99.90
2023-04-04T06:05:29.765Z,99.90
2023-04-04T06:07:57.904Z,99.90
2023-04-04T06:10:27.874Z,99.90
2023-04-04T06:12:55.965Z,99.90
2023-04-04T06:15:23.959Z,99.90
2023-04-04T06:17:51.950Z,99.90
2023-04-04T06:20:22.659Z,99.90
2023-04-04T06:22:50.771Z,99.90
2023-04-04T06:25:19.227Z,99.90
2023-04-04T06:27:48.687Z,99.90
2023-04-04T06:30:18.146Z,99.70
2023-04-04T06:32:46.136Z,99.90
2023-04-04T06:35:14.144Z,99.20
2023-04-04T06:37:42.148Z,99.80
2023-04-04T06:40:10.910Z,99.40
2023-04-04T06:42:38.938Z,97.90
2023-04-04T06:45:09.426Z,93.90
2023-04-04T06:47:37.437Z,92.70
2023-04-04T06:50:06.075Z,90.90
2023-04-04T06:52:34.549Z,90.40
2023-04-04T06:55:02.540Z,83.50
2023-04-04T06:57:30.540Z,79.50
2023-04-04T07:00:03.322Z,74.50
2023-04-04T07:02:38.660Z,70.70
2023-04-04T07:05:17.778Z,67.50
2023-04-04T07:07:54.526Z,64.00
2023-04-04T07:10:22.504Z,65.50
2023-04-04T07:12:51.066Z,64.80
2023-04-04T07:15:19.384Z,64.80
2023-04-04T07:17:48.895Z,59.00
2023-04-04T07:20:16.889Z,58.30
2023-04-04T07:22:44.853Z,57.80
2023-04-04T07:25:13.520Z,58.80
2023-04-04T07:27:41.859Z,56.10
2023-04-04T07:30:11.118Z,57.60
2023-04-04T07:32:39.289Z,53.40
2023-04-04T07:35:09.672Z,53.10
2023-04-04T07:37:38.656Z,54.10
2023-04-04T07:40:09.425Z,53.90
2023-04-04T07:42:37.987Z,51.30
2023-04-04T07:45:06.529Z,52.20
2023-04-04T07:47:34.517Z,48.60
2023-04-04T07:50:02.622Z,49.10
2023-04-04T07:52:32.007Z,48.30
2023-04-04T07:55:01.011Z,49.20
2023-04-04T07:57:29.064Z,46.50
2023-04-04T07:59:57.139Z,45.40
2023-04-04T08:02:25.343Z,44.50
2023-04-04T08:04:55.939Z,45.00
2023-04-04T08:07:29.266Z,44.60
2023-04-04T08:09:59.807Z,44.60
2023-04-04T08:12:27.851Z,42.60
2023-04-04T08:14:55.977Z,41.10
2023-04-04T08:17:24.725Z,41.40
2023-04-04T08:19:52.781Z,41.70
2023-04-04T08:22:21.142Z,40.30
2023-04-04T08:24:49.165Z,40.80
2023-04-04T08:27:18.686Z,40.90
2023-04-04T08:29:48.017Z,39.50
2023-04-04T08:32:17.060Z,39.80
2023-04-04T08:34:45.035Z,39.00
2023-04-04T08:37:13.057Z,37.00
2023-04-04T08:39:41.032Z,36.60
2023-04-04T08:42:09.441Z,36.60
2023-04-04T08:44:39.565Z,37.00
2023-04-04T08:47:10.521Z,34.40
2023-04-04T08:49:42.389Z,35.40
2023-04-04T08:52:13.004Z,35.20
2023-04-04T08:54:43.367Z,36.20
2023-04-04T08:57:11.817Z,35.20
2023-04-04T08:59:41.400Z,35.50
2023-04-04T09:02:20.943Z,34.70
2023-04-04T09:05:02.431Z,33.60
2023-04-04T09:07:34.373Z,34.00
2023-04-04T09:10:11.733Z,32.80
2023-04-04T09:12:43.139Z,32.90
2023-04-04T09:15:13.604Z,32.50
2023-04-04T09:17:41.817Z,31.20
2023-04-04T09:20:35.942Z,31.50
2023-04-04T09:23:07.808Z,31.80
2023-04-04T09:25:36.584Z,30.00
2023-04-04T09:28:05.697Z,29.70
2023-04-04T09:30:36.155Z,28.80
2023-04-04T09:33:06.180Z,29.10
2023-04-04T09:35:36.493Z,30.00
2023-04-04T09:38:04.817Z,28.90
2023-04-04T09:40:33.509Z,29.00
2023-04-04T09:43:02.433Z,27.90
2023-04-04T09:45:32.639Z,26.90
2023-04-04T09:48:02.229Z,26.60
2023-04-04T09:50:30.497Z,27.60
2023-04-04T09:53:00.458Z,27.40
2023-04-04T09:55:36.334Z,26.00
2023-04-04T09:58:13.533Z,25.80
2023-04-04T10:00:44.926Z,25.50
2023-04-04T10:03:16.057Z,25.10
2023-04-04T10:05:45.838Z,24.30
2023-04-04T10:08:18.603Z,25.30
2023-04-04T10:11:02.658Z,25.40
2023-04-04T10:13:40.839Z,24.90
2023-04-04T10:16:10.732Z,25.30
2023-04-04T10:18:40.893Z,24.90
2023-04-04T10:23:42.863Z,25.00
2023-04-04T10:26:12.564Z,25.30
2023-04-04T10:28:42.190Z,24.40
2023-04-04T10:31:17.359Z,24.30
2023-04-04T10:33:53.801Z,24.10
2023-04-04T10:36:24.683Z,24.30
2023-04-04T10:39:04.783Z,22.90
2023-04-04T10:41:33.633Z,23.00
2023-04-04T10:44:12.808Z,22.90
2023-04-04T10:46:44.295Z,23.50
2023-04-04T10:49:14.302Z,23.70
2023-04-04T10:51:54.932Z,22.50
2023-04-04T10:54:24.307Z,24.10
2023-04-04T10:56:52.810Z,23.30
2023-04-04T10:59:21.892Z,24.30
2023-04-04T11:01:52.102Z,24.30
2023-04-04T11:04:29.597Z,23.70
2023-04-04T11:07:17.404Z,23.00
2023-04-04T11:09:56.379Z,24.20
2023-04-04T11:12:36.251Z,23.60
2023-04-04T11:15:12.889Z,23.70
2023-04-04T11:17:56.546Z,23.50
2023-04-04T11:20:30.800Z,21.90
2023-04-04T11:23:06.560Z,21.90
2023-04-04T11:25:39.831Z,22.40
2023-04-04T11:28:25.919Z,22.70
2023-04-04T11:31:25.024Z,22.90
2023-04-04T11:34:04.542Z,22.30
2023-04-04T11:36:53.437Z,22.80
2023-04-04T11:39:29.493Z,22.80
2023-04-04T11:42:03.506Z,23.10
2023-04-04T11:44:34.276Z,23.70
2023-04-04T11:47:04.470Z,23.40
2023-04-04T11:49:35.761Z,21.90
2023-04-04T11:52:11.073Z,21.20
2023-04-04T11:54:40.054Z,21.00
2023-04-04T11:57:18.851Z,21.20
2023-04-04T11:59:48.838Z,22.30
2023-04-04T12:02:20.674Z,23.20
2023-04-04T12:04:49.115Z,22.50
2023-04-04T12:07:18.841Z,22.10
2023-04-04T12:09:47.210Z,21.20
2023-04-04T12:12:24.263Z,21.00
2023-04-04T12:14:52.764Z,21.50
2023-04-04T12:17:21.683Z,21.90
2023-04-04T12:19:49.639Z,22.50
2023-04-04T12:22:20.282Z,23.50
2023-04-04T12:24:48.366Z,23.50
2023-04-04T12:27:16.615Z,21.90
2023-04-04T12:29:47.599Z,23.00
2023-04-04T12:32:16.375Z,23.30
2023-04-04T12:34:48.772Z,22.40
2023-04-04T12:37:23.602Z,21.70
2023-04-04T12:39:52.384Z,21.40
2023-04-04T12:42:24.361Z,22.20
2023-04-04T12:44:53.794Z,22.40
2023-04-04T12:47:28.692Z,22.40
2023-04-04T12:49:57.144Z,22.40
2023-04-04T12:52:41.035Z,22.10
2023-04-04T12:55:12.893Z,22.50
2023-04-04T12:57:41.414Z,22.50
2023-04-04T13:00:10.451Z,21.60
2023-04-04T13:02:41.091Z,22.20
2023-04-04T13:05:11.223Z,22.40
2023-04-04T13:07:45.944Z,21.30
2023-04-04T13:10:16.464Z,22.00
2023-04-04T13:12:58.639Z,21.90
2023-04-04T13:15:49.165Z,22.00
2023-04-04T13:18:18.597Z,21.00
2023-04-04T13:20:46.696Z,21.90
2023-04-04T13:23:16.917Z,21.50
2023-04-04T13:25:46.053Z,20.70
2023-04-04T13:28:14.397Z,21.00
2023-04-04T13:30:46.795Z,20.20
2023-04-04T13:33:16.198Z,19.80
2023-04-04T13:35:45.863Z,21.00
2023-04-04T13:38:15.323Z,21.90
2023-04-04T13:40:44.322Z,21.60
2023-04-04T13:43:34.024Z,21.70
2023-04-04T13:46:02.208Z,21.10
2023-04-04T13:48:31.211Z,20.70
2023-04-04T13:50:59.204Z,19.50
2023-04-04T13:53:28.504Z,19.90
2023-04-04T13:56:17.167Z,21.20
2023-04-04T13:58:44.496Z,22.20
2023-04-04T14:01:12.569Z,22.00
2023-04-04T14:03:48.958Z,21.30
2023-04-04T14:06:16.966Z,20.90
2023-04-04T14:08:47.683Z,21.60
2023-04-04T14:11:16.100Z,21.90
2023-04-04T14:13:44.098Z,21.60
2023-04-04T14:16:12.353Z,21.40
2023-04-04T14:18:40.482Z,22.10
2023-04-04T14:21:09.471Z,21.60
2023-04-04T14:23:37.520Z,21.60
2023-04-04T14:26:07.269Z,22.20
2023-04-04T14:28:41.317Z,22.70
2023-04-04T14:31:09.497Z,22.00
2023-04-04T14:33:37.532Z,21.30
2023-04-04T14:36:06.313Z,20.60
2023-04-04T14:38:34.307Z,21.70
2023-04-04T14:41:02.409Z,21.50
2023-04-04T14:43:31.973Z,22.30
2023-04-04T14:45:59.966Z,21.10
2023-04-04T14:48:28.056Z,22.00
2023-04-04T14:50:56.060Z,21.10
2023-04-04T14:53:24.152Z,20.90
2023-04-04T14:56:02.327Z,21.10
2023-04-04T14:58:33.269Z,21.70
2023-04-04T15:01:05.993Z,21.80
2023-04-04T15:03:34.958Z,21.20
2023-04-04T15:06:04.367Z,21.00
2023-04-04T15:08:32.376Z,20.80
2023-04-04T15:11:02.485Z,20.60
2023-04-04T15:13:32.137Z,20.30
2023-04-04T15:16:01.452Z,20.10
2023-04-04T15:18:29.564Z,19.50
2023-04-04T15:20:59.170Z,19.50
2023-04-04T15:23:27.231Z,19.40
2023-04-04T15:25:55.301Z,19.00
2023-04-04T15:28:25.510Z,19.10
2023-04-04T15:30:57.523Z,20.10
2023-04-04T15:33:38.242Z,18.80
2023-04-04T15:36:06.766Z,19.20
2023-04-04T15:38:34.808Z,18.70
2023-04-04T15:41:02.774Z,19.30
2023-04-04T15:43:32.436Z,19.70
2023-04-04T15:46:03.515Z,18.20
2023-04-04T15:48:36.843Z,18.40
2023-04-04T15:51:07.997Z,18.80
2023-04-04T15:53:38.064Z,18.90
2023-04-04T15:56:07.536Z,18.70
2023-04-04T15:58:38.725Z,18.70
2023-04-04T16:01:08.793Z,18.70
2023-04-04T16:03:38.991Z,18.90
2023-04-04T16:06:13.855Z,19.70
2023-04-04T16:08:44.554Z,19.50
2023-04-04T16:11:19.372Z,19.30
2023-04-04T16:13:49.809Z,20.50
2023-04-04T16:16:19.635Z,20.50
2023-04-04T16:18:47.669Z,20.80
2023-04-04T16:21:16.743Z,20.50
2023-04-04T16:23:44.741Z,20.60
2023-04-04T16:26:16.950Z,20.80
2023-04-04T16:28:47.187Z,20.60
2023-04-04T16:31:21.971Z,20.30
2023-04-04T16:33:49.949Z,21.00
2023-04-04T16:36:18.096Z,21.50
2023-04-04T16:38:47.103Z,21.20
2023-04-04T16:41:17.439Z,21.40
2023-04-04T16:43:49.612Z,21.50
2023-04-04T16:46:18.666Z,21.60
2023-04-04T16:48:57.951Z,21.60
2023-04-04T16:51:29.830Z,22.20
2023-04-04T16:54:00.950Z,21.70
2023-04-04T16:56:33.046Z,22.30
2023-04-04T16:59:02.323Z,22.40
2023-04-04T17:01:31.957Z,22.80
2023-04-04T17:04:07.524Z,23.20
2023-04-04T17:06:37.596Z,24.00
2023-04-04T17:09:05.570Z,24.90
2023-04-04T17:11:44.464Z,25.00
2023-04-04T17:14:21.376Z,25.10
2023-04-04T17:16:52.327Z,25.90
2023-04-04T17:19:23.793Z,25.90
2023-04-04T17:21:52.210Z,25.90
2023-04-04T17:24:23.150Z,26.00
2023-04-04T17:26:53.501Z,26.10
2023-04-04T17:29:26.832Z,26.40
2023-04-04T17:31:56.143Z,26.50
2023-04-04T17:34:25.709Z,27.00
2023-04-04T17:36:54.375Z,26.70
2023-04-04T17:39:23.660Z,27.10
2023-04-04T17:41:53.752Z,27.70
2023-04-04T17:44:31.275Z,28.60
2023-04-04T17:46:59.686Z,28.30
2023-04-04T17:49:31.349Z,28.40
2023-04-04T17:51:59.295Z,28.80
2023-04-04T17:54:28.313Z,28.60
2023-04-04T17:56:57.184Z,28.80
2023-04-04T17:59:25.234Z,28.40
2023-04-04T18:01:53.425Z,28.60
2023-04-04T18:04:22.253Z,28.80
2023-04-04T18:06:54.471Z,28.90
2023-04-04T18:09:29.516Z,29.40
2023-04-04T18:12:00.979Z,29.90
2023-04-04T18:14:31.388Z,30.00
2023-04-04T18:16:59.334Z,30.10
2023-04-04T18:19:27.358Z,31.10
2023-04-04T18:22:09.389Z,31.10
2023-04-04T18:24:37.981Z,30.70
2023-04-04T18:27:06.332Z,30.30
2023-04-04T18:29:35.338Z,30.40
2023-04-04T18:32:04.659Z,30.80
2023-04-04T18:34:34.750Z,31.10
2023-04-04T18:37:02.680Z,31.20
2023-04-04T18:39:32.041Z,31.90
2023-04-04T18:42:00.181Z,32.30
2023-04-04T18:44:28.221Z,32.50
2023-04-04T18:46:58.149Z,33.40
2023-04-04T18:49:31.526Z,33.40
2023-04-04T18:51:59.510Z,33.90
2023-04-04T18:54:28.879Z,33.90
2023-04-04T18:56:58.379Z,34.90
2023-04-04T18:59:26.831Z,36.40
2023-04-04T19:01:57.976Z,36.30
2023-04-04T19:04:26.103Z,37.70
2023-04-04T19:06:55.253Z,38.70
2023-04-04T19:09:33.756Z,39.70
2023-04-04T19:12:03.932Z,40.30
2023-04-04T19:14:31.938Z,41.10
2023-04-04T19:17:00.056Z,42.50
2023-04-04T19:19:29.024Z,42.10
2023-04-04T19:21:57.155Z,43.10
2023-04-04T19:24:26.054Z,43.20
2023-04-04T19:27:10.680Z,42.80
2023-04-04T19:29:39.985Z,42.30
2023-04-04T19:32:13.922Z,42.80
2023-04-04T19:34:44.639Z,44.10
2023-04-04T19:37:13.282Z,45.60
2023-04-04T19:39:43.672Z,46.90
2023-04-04T19:42:13.246Z,47.20
2023-04-04T19:44:42.042Z,47.70
2023-04-04T19:47:18.671Z,49.50
2023-04-04T19:49:54.773Z,49.50
2023-04-04T19:52:25.330Z,50.00
2023-04-04T19:54:53.320Z,48.60
2023-04-04T19:57:24.135Z,49.20
2023-04-04T20:00:02.008Z,48.60
2023-04-04T20:02:50.732Z,49.00
2023-04-04T20:05:57.747Z,49.50
2023-04-04T20:08:33.498Z,52.60
2023-04-04T20:11:02.870Z,50.70
2023-04-04T20:13:35.020Z,51.50
2023-04-04T20:16:06.113Z,53.40
2023-04-04T20:18:35.937Z,53.10
2023-04-04T20:21:13.452Z,53.30
2023-04-04T20:23:52.309Z,52.30
2023-04-04T20:26:59.138Z,54.00
2023-04-04T20:29:30.952Z,55.00
2023-04-04T20:32:03.012Z,53.80
2023-04-04T20:34:42.819Z,56.00
2023-04-04T20:37:13.834Z,54.40
2023-04-04T20:39:47.061Z,53.90
2023-04-04T20:42:21.232Z,54.30
2023-04-04T20:45:00.594Z,55.30
2023-04-04T20:47:43.588Z,54.30
2023-04-04T20:50:44.012Z,52.30
2023-04-04T20:53:20.373Z,51.40
2023-04-04T20:55:50.296Z,50.40
2023-04-04T20:58:27.930Z,49.70
2023-04-04T21:00:58.328Z,50.00
2023-04-04T21:03:35.311Z,50.10
2023-04-04T21:06:32.794Z,50.10
2023-04-04T21:09:02.029Z,50.90
2023-04-04T21:11:30.480Z,51.60
2023-04-04T21:13:59.539Z,51.20
2023-04-04T21:16:32.078Z,52.10
2023-04-04T21:19:02.699Z,53.10
2023-04-04T21:21:36.518Z,53.60
2023-04-04T21:24:10.000Z,55.00
2023-04-04T21:26:46.173Z,54.80
2023-04-04T21:29:22.362Z,54.70
2023-04-04T21:31:54.295Z,55.20
2023-04-04T21:34:25.127Z,55.80
2023-04-04T21:37:03.305Z,57.10
2023-04-04T21:39:33.352Z,56.30
2023-04-04T21:42:06.826Z,57.30
2023-04-04T21:44:36.680Z,58.50
2023-04-04T21:47:06.702Z,59.10
2023-04-04T21:49:34.719Z,59.10
2023-04-04T21:52:02.789Z,59.00
2023-04-04T21:54:30.781Z,62.10
2023-04-04T21:56:58.820Z,61.70
2023-04-04T21:59:26.878Z,61.50
2023-04-04T22:01:59.075Z,59.90
2023-04-04T22:04:28.594Z,61.20
2023-04-04T22:06:58.669Z,64.20
2023-04-04T22:09:29.711Z,66.80
2023-04-04T22:11:58.943Z,69.70
2023-04-04T22:14:27.398Z,72.30
2023-04-04T22:16:58.898Z,78.60
2023-04-04T22:19:43.867Z,78.50
2023-04-04T22:22:11.897Z,80.10
2023-04-04T22:24:40.819Z,80.90
2023-04-04T22:27:08.855Z,83.00
2023-04-04T22:29:36.868Z,83.00
2023-04-04T22:32:05.169Z,87.20
2023-04-04T22:34:37.176Z,85.80
2023-04-04T22:37:05.454Z,86.70
2023-04-04T22:39:34.696Z,87.80
2023-04-04T22:42:12.679Z,86.30
2023-04-04T22:44:48.126Z,86.20
2023-04-04T22:47:26.083Z,88.80
2023-04-04T22:50:04.639Z,90.00
2023-04-04T22:52:42.107Z,88.30
2023-04-04T22:55:12.976Z,80.60
2023-04-04T22:57:45.140Z,81.50
2023-04-04T23:00:14.705Z,74.50
2023-04-04T23:02:43.913Z,76.60
2023-04-04T23:05:18.055Z,74.10
2023-04-04T23:07:47.355Z,72.10
2023-04-04T23:10:16.714Z,73.80
2023-04-04T23:12:44.859Z,75.20
2023-04-04T23:15:13.677Z,71.40
2023-04-04T23:17:41.726Z,69.60
2023-04-04T23:20:13.265Z,66.90
2023-04-04T23:22:41.654Z,67.80
2023-04-04T23:25:11.390Z,70.70
2023-04-04T23:27:40.157Z,70.20
2023-04-04T23:30:09.853Z,67.60
2023-04-04T23:32:37.877Z,66.70
2023-04-04T23:35:06.666Z,70.00
2023-04-04T23:37:36.037Z,65.50
2023-04-04T23:40:12.490Z,62.00
2023-04-04T23:42:40.731Z,65.70
2023-04-04T23:45:10.109Z,63.10
2023-04-04T23:47:40.779Z,66.70
2023-04-04T23:50:09.791Z,66.50
2023-04-04T23:52:39.478Z,71.00
2023-04-04T23:55:08.517Z,67.30
2023-04-04T23:57:36.674Z,70.20
